sensor_id;sensor_type;location;lat;lon;timestamp;temperature;humidity
7708;DHT22;3896;48.758;8.888;2023-05-07T00:00:18;13.40;90.30
7708;DHT22;3896;48.758;8.888;2023-05-07T00:02:44;13.40;90.80
7708;DHT22;3896;48.758;8.888;2023-05-07T00:05:10;13.40;91.30
7708;DHT22;3896;48.758;8.888;2023-05-07T00:07:36;13.40;91.60
7708;DHT22;3896;48.758;8.888;2023-05-07T00:10:02;13.30;91.90
7708;DHT22;3896;48.758;8.888;2023-05-07T00:12:28;13.30;92.10
7708;DHT22;3896;48.758;8.888;2023-05-07T00:14:56;13.30;92.50
7708;DHT22;3896;48.758;8.888;2023-05-07T00:17:22;13.20;92.90
7708;DHT22;3896;48.758;8.888;2023-05-07T00:19:48;13.20;93.20
7708;DHT22;3896;48.758;8.888;2023-05-07T00:22:13;13.20;93.40
7708;DHT22;3896;48.758;8.888;2023-05-07T00:24:39;13.20;93.60
7708;DHT22;3896;48.758;8.888;2023-05-07T00:27:04;13.20;93.80
7708;DHT22;3896;48.758;8.888;2023-05-07T00:29:30;13.20;94.10
7708;DHT22;3896;48.758;8.888;2023-05-07T00:31:56;13.10;94.40
7708;DHT22;3896;48.758;8.888;2023-05-07T00:34:21;13.10;94.80
7708;DHT22;3896;48.758;8.888;2023-05-07T00:36:47;13.10;95.20
7708;DHT22;3896;48.758;8.888;2023-05-07T00:39:13;13.10;95.60
7708;DHT22;3896;48.758;8.888;2023-05-07T00:41:39;13.00;95.70
7708;DHT22;3896;48.758;8.888;2023-05-07T00:44:04;13.00;95.90
7708;DHT22;3896;48.758;8.888;2023-05-07T00:46:31;13.00;96.30
7708;DHT22;3896;48.758;8.888;2023-05-07T00:48:58;13.00;96.60
7708;DHT22;3896;48.758;8.888;2023-05-07T00:51:25;12.90;96.80
7708;DHT22;3896;48.758;8.888;2023-05-07T00:53:52;12.90;97.30
7708;DHT22;3896;48.758;8.888;2023-05-07T00:56:18;12.90;97.60
7708;DHT22;3896;48.758;8.888;2023-05-07T00:58:44;12.90;98.00
7708;DHT22;3896;48.758;8.888;2023-05-07T01:01:09;12.90;98.20
7708;DHT22;3896;48.758;8.888;2023-05-07T01:03:35;12.90;98.40
7708;DHT22;3896;48.758;8.888;2023-05-07T01:06:01;12.90;98.50
7708;DHT22;3896;48.758;8.888;2023-05-07T01:08:28;12.80;98.80
7708;DHT22;3896;48.758;8.888;2023-05-07T01:10:56;12.80;99.10
7708;DHT22;3896;48.758;8.888;2023-05-07T01:13:22;12.80;99.30
7708;DHT22;3896;48.758;8.888;2023-05-07T01:15:48;12.80;99.40
7708;DHT22;3896;48.758;8.888;2023-05-07T01:18:14;12.80;99.10
7708;DHT22;3896;48.758;8.888;2023-05-07T01:20:41;12.70;99.40
7708;DHT22;3896;48.758;8.888;2023-05-07T01:23:07;12.70;99.80
7708;DHT22;3896;48.758;8.888;2023-05-07T01:25:32;12.70;99.60
7708;DHT22;3896;48.758;8.888;2023-05-07T01:27:58;12.70;99.90
7708;DHT22;3896;48.758;8.888;2023-05-07T01:30:27;12.70;99.90
7708;DHT22;3896;48.758;8.888;2023-05-07T01:33:08;12.60;99.90
7708;DHT22;3896;48.758;8.888;2023-05-07T01:35:40;12.60;99.90
7708;DHT22;3896;48.758;8.888;2023-05-07T01:38:06;12.60;99.90
7708;DHT22;3896;48.758;8.888;2023-05-07T01:40:33;12.60;99.90
7708;DHT22;3896;48.758;8.888;2023-05-07T01:43:03;12.60;99.90
7708;DHT22;3896;48.758;8.888;2023-05-07T01:45:30;12.60;99.90
7708;DHT22;3896;48.758;8.888;2023-05-07T01:47:58;12.50;99.90
7708;DHT22;3896;48.758;8.888;2023-05-07T01:50:25;12.50;99.90
7708;DHT22;3896;48.758;8.888;2023-05-07T01:52:51;12.50;99.90
7708;DHT22;3896;48.758;8.888;2023-05-07T01:55:16;12.50;99.90
7708;DHT22;3896;48.758;8.888;2023-05-07T01:57:42;12.50;99.90
7708;DHT22;3896;48.758;8.888;2023-05-07T02:00:08;12.40;99.90
7708;DHT22;3896;48.758;8.888;2023-05-07T02:02:34;12.40;99.90
7708;DHT22;3896;48.758;8.888;2023-05-07T02:05:00;12.40;99.90
7708;DHT22;3896;48.758;8.888;2023-05-07T02:07:27;12.40;99.90
7708;DHT22;3896;48.758;8.888;2023-05-07T02:09:53;12.40;99.90
7708;DHT22;3896;48.758;8.888;2023-05-07T02:12:19;12.40;99.90
7708;DHT22;3896;48.758;8.888;2023-05-07T02:14:44;12.30;99.90
7708;DHT22;3896;48.758;8.888;2023-05-07T02:17:10;12.30;99.90
7708;DHT22;3896;48.758;8.888;2023-05-07T02:19:35;12.30;99.90
7708;DHT22;3896;48.758;8.888;2023-05-07T02:22:01;12.30;99.90
7708;DHT22;3896;48.758;8.888;2023-05-07T02:24:26;12.20;99.90
7708;DHT22;3896;48.758;8.888;2023-05-07T02:26:52;12.20;99.90
7708;DHT22;3896;48.758;8.888;2023-05-07T02:29:17;12.20;99.90
7708;DHT22;3896;48.758;8.888;2023-05-07T02:31:43;12.20;99.90
7708;DHT22;3896;48.758;8.888;2023-05-07T02:34:08;12.20;99.90
7708;DHT22;3896;48.758;8.888;2023-05-07T02:36:34;12.20;99.90
7708;DHT22;3896;48.758;8.888;2023-05-07T02:39:00;12.10;99.90
7708;DHT22;3896;48.758;8.888;2023-05-07T02:41:25;12.10;99.90
7708;DHT22;3896;48.758;8.888;2023-05-07T02:43:51;12.10;99.90
7708;DHT22;3896;48.758;8.888;2023-05-07T02:46:16;12.10;99.90
7708;DHT22;3896;48.758;8.888;2023-05-07T02:48:42;12.00;99.90
7708;DHT22;3896;48.758;8.888;2023-05-07T02:51:08;12.00;99.90
7708;DHT22;3896;48.758;8.888;2023-05-07T02:53:33;12.00;99.90
7708;DHT22;3896;48.758;8.888;2023-05-07T02:56:00;12.00;99.90
7708;DHT22;3896;48.758;8.888;2023-05-07T02:58:26;11.90;99.90
7708;DHT22;3896;48.758;8.888;2023-05-07T03:00:52;11.90;99.90
7708;DHT22;3896;48.758;8.888;2023-05-07T03:03:18;11.90;99.90
7708;DHT22;3896;48.758;8.888;2023-05-07T03:05:43;11.90;99.90
7708;DHT22;3896;48.758;8.888;2023-05-07T03:08:09;11.90;99.90
7708;DHT22;3896;48.758;8.888;2023-05-07T03:10:36;11.80;99.90
7708;DHT22;3896;48.758;8.888;2023-05-07T03:13:01;11.80;99.90
7708;DHT22;3896;48.758;8.888;2023-05-07T03:15:27;11.70;99.90
7708;DHT22;3896;48.758;8.888;2023-05-07T03:17:53;11.70;99.90
7708;DHT22;3896;48.758;8.888;2023-05-07T03:20:18;11.70;99.90
7708;DHT22;3896;48.758;8.888;2023-05-07T03:22:44;11.60;99.90
7708;DHT22;3896;48.758;8.888;2023-05-07T03:25:10;11.60;99.90
7708;DHT22;3896;48.758;8.888;2023-05-07T03:27:36;11.60;99.90
7708;DHT22;3896;48.758;8.888;2023-05-07T03:30:01;11.50;99.90
7708;DHT22;3896;48.758;8.888;2023-05-07T03:32:27;11.50;99.90
7708;DHT22;3896;48.758;8.888;2023-05-07T03:34:52;11.50;99.90
7708;DHT22;3896;48.758;8.888;2023-05-07T03:37:18;11.50;99.90
7708;DHT22;3896;48.758;8.888;2023-05-07T03:39:44;11.40;99.90
7708;DHT22;3896;48.758;8.888;2023-05-07T03:42:10;11.40;99.90
7708;DHT22;3896;48.758;8.888;2023-05-07T03:44:35;11.40;99.90
7708;DHT22;3896;48.758;8.888;2023-05-07T03:47:02;11.30;99.90
7708;DHT22;3896;48.758;8.888;2023-05-07T03:49:27;11.30;99.90
7708;DHT22;3896;48.758;8.888;2023-05-07T03:51:53;11.30;99.90
7708;DHT22;3896;48.758;8.888;2023-05-07T03:54:18;11.30;99.90
7708;DHT22;3896;48.758;8.888;2023-05-07T03:56:44;11.20;99.90
7708;DHT22;3896;48.758;8.888;2023-05-07T03:59:09;11.20;99.90
7708;DHT22;3896;48.758;8.888;2023-05-07T04:01:35;11.20;99.90
7708;DHT22;3896;48.758;8.888;2023-05-07T04:04:01;11.10;99.90
7708;DHT22;3896;48.758;8.888;2023-05-07T04:06:26;11.10;99.90
7708;DHT22;3896;48.758;8.888;2023-05-07T04:08:52;11.10;99.90
7708;DHT22;3896;48.758;8.888;2023-05-07T04:11:18;11.10;99.90
7708;DHT22;3896;48.758;8.888;2023-05-07T04:13:44;11.10;99.90
7708;DHT22;3896;48.758;8.888;2023-05-07T04:16:09;11.00;99.90
7708;DHT22;3896;48.758;8.888;2023-05-07T04:18:35;11.00;99.90
7708;DHT22;3896;48.758;8.888;2023-05-07T04:21:00;11.00;99.90
7708;DHT22;3896;48.758;8.888;2023-05-07T04:23:26;10.90;99.90
7708;DHT22;3896;48.758;8.888;2023-05-07T04:25:51;10.90;99.90
7708;DHT22;3896;48.758;8.888;2023-05-07T04:28:17;10.90;99.90
7708;DHT22;3896;48.758;8.888;2023-05-07T04:30:43;10.90;99.90
7708;DHT22;3896;48.758;8.888;2023-05-07T04:33:08;10.90;99.90
7708;DHT22;3896;48.758;8.888;2023-05-07T04:35:35;10.90;99.90
7708;DHT22;3896;48.758;8.888;2023-05-07T04:38:00;10.90;99.90
7708;DHT22;3896;48.758;8.888;2023-05-07T04:40:26;10.90;99.90
7708;DHT22;3896;48.758;8.888;2023-05-07T04:42:52;10.90;99.90
7708;DHT22;3896;48.758;8.888;2023-05-07T04:45:18;10.80;99.90
7708;DHT22;3896;48.758;8.888;2023-05-07T04:47:44;10.80;99.90
7708;DHT22;3896;48.758;8.888;2023-05-07T04:50:10;10.80;99.90
7708;DHT22;3896;48.758;8.888;2023-05-07T04:52:36;10.90;99.90
7708;DHT22;3896;48.758;8.888;2023-05-07T04:55:01;10.90;99.90
7708;DHT22;3896;48.758;8.888;2023-05-07T04:57:27;10.90;99.90
7708;DHT22;3896;48.758;8.888;2023-05-07T04:59:53;10.90;99.90
7708;DHT22;3896;48.758;8.888;2023-05-07T05:02:19;10.90;99.90
7708;DHT22;3896;48.758;8.888;2023-05-07T05:04:45;10.90;99.90
7708;DHT22;3896;48.758;8.888;2023-05-07T05:07:11;10.90;99.90
7708;DHT22;3896;48.758;8.888;2023-05-07T05:09:36;10.90;99.90
7708;DHT22;3896;48.758;8.888;2023-05-07T05:12:02;10.90;99.90
7708;DHT22;3896;48.758;8.888;2023-05-07T05:14:29;10.90;99.90
7708;DHT22;3896;48.758;8.888;2023-05-07T05:16:54;11.00;99.90
7708;DHT22;3896;48.758;8.888;2023-05-07T05:19:20;11.00;99.90
7708;DHT22;3896;48.758;8.888;2023-05-07T05:21:45;11.00;99.90
7708;DHT22;3896;48.758;8.888;2023-05-07T05:24:11;11.10;99.90
7708;DHT22;3896;48.758;8.888;2023-05-07T05:26:37;11.10;99.90
7708;DHT22;3896;48.758;8.888;2023-05-07T05:29:02;11.20;99.90
7708;DHT22;3896;48.758;8.888;2023-05-07T05:31:28;11.20;99.90
7708;DHT22;3896;48.758;8.888;2023-05-07T05:33:53;11.30;99.90
7708;DHT22;3896;48.758;8.888;2023-05-07T05:36:19;11.30;99.90
7708;DHT22;3896;48.758;8.888;2023-05-07T05:38:44;11.40;99.90
7708;DHT22;3896;48.758;8.888;2023-05-07T05:41:10;11.40;99.90
7708;DHT22;3896;48.758;8.888;2023-05-07T05:43:35;11.50;99.90
7708;DHT22;3896;48.758;8.888;2023-05-07T05:46:01;11.50;99.90
7708;DHT22;3896;48.758;8.888;2023-05-07T05:48:28;11.60;99.90
7708;DHT22;3896;48.758;8.888;2023-05-07T05:50:53;11.70;99.90
7708;DHT22;3896;48.758;8.888;2023-05-07T05:53:19;11.80;99.90
7708;DHT22;3896;48.758;8.888;2023-05-07T05:55:45;11.80;99.90
7708;DHT22;3896;48.758;8.888;2023-05-07T05:58:10;11.90;99.90
7708;DHT22;3896;48.758;8.888;2023-05-07T06:00:36;12.00;99.90
7708;DHT22;3896;48.758;8.888;2023-05-07T06:03:01;12.00;99.90
7708;DHT22;3896;48.758;8.888;2023-05-07T06:05:27;12.10;99.90
7708;DHT22;3896;48.758;8.888;2023-05-07T06:07:53;12.20;99.90
7708;DHT22;3896;48.758;8.888;2023-05-07T06:10:18;12.30;99.90
7708;DHT22;3896;48.758;8.888;2023-05-07T06:12:44;12.40;99.90
7708;DHT22;3896;48.758;8.888;2023-05-07T06:15:10;12.40;99.90
7708;DHT22;3896;48.758;8.888;2023-05-07T06:17:35;12.50;99.90
7708;DHT22;3896;48.758;8.888;2023-05-07T06:20:01;12.60;99.90
7708;DHT22;3896;48.758;8.888;2023-05-07T06:22:26;12.60;99.90
7708;DHT22;3896;48.758;8.888;2023-05-07T06:24:52;12.70;99.90
7708;DHT22;3896;48.758;8.888;2023-05-07T06:27:18;12.80;99.90
7708;DHT22;3896;48.758;8.888;2023-05-07T06:29:43;12.80;99.90
7708;DHT22;3896;48.758;8.888;2023-05-07T06:32:09;12.90;99.90
7708;DHT22;3896;48.758;8.888;2023-05-07T06:34:36;12.90;99.90
7708;DHT22;3896;48.758;8.888;2023-05-07T06:37:02;13.00;99.90
7708;DHT22;3896;48.758;8.888;2023-05-07T06:39:27;13.10;99.90
7708;DHT22;3896;48.758;8.888;2023-05-07T06:41:53;13.10;99.90
7708;DHT22;3896;48.758;8.888;2023-05-07T06:44:19;13.20;99.90
7708;DHT22;3896;48.758;8.888;2023-05-07T06:46:44;13.30;99.90
7708;DHT22;3896;48.758;8.888;2023-05-07T06:49:10;13.40;99.90
7708;DHT22;3896;48.758;8.888;2023-05-07T06:51:36;13.50;99.90
7708;DHT22;3896;48.758;8.888;2023-05-07T06:54:01;13.60;99.90
7708;DHT22;3896;48.758;8.888;2023-05-07T06:56:27;13.70;99.90
7708;DHT22;3896;48.758;8.888;2023-05-07T06:58:52;13.80;99.90
7708;DHT22;3896;48.758;8.888;2023-05-07T07:01:18;13.90;99.90
7708;DHT22;3896;48.758;8.888;2023-05-07T07:03:44;14.00;99.90
7708;DHT22;3896;48.758;8.888;2023-05-07T07:06:09;14.10;99.90
7708;DHT22;3896;48.758;8.888;2023-05-07T07:08:35;14.20;99.90
7708;DHT22;3896;48.758;8.888;2023-05-07T07:11:00;14.30;99.90
7708;DHT22;3896;48.758;8.888;2023-05-07T07:13:26;14.50;99.90
7708;DHT22;3896;48.758;8.888;2023-05-07T07:15:52;14.60;99.90
7708;DHT22;3896;48.758;8.888;2023-05-07T07:18:18;14.80;99.90
7708;DHT22;3896;48.758;8.888;2023-05-07T07:20:44;14.90;99.90
7708;DHT22;3896;48.758;8.888;2023-05-07T07:23:09;15.10;99.90
7708;DHT22;3896;48.758;8.888;2023-05-07T07:25:35;15.30;99.90
7708;DHT22;3896;48.758;8.888;2023-05-07T07:28:01;15.40;99.90
7708;DHT22;3896;48.758;8.888;2023-05-07T07:30:26;15.60;99.90
7708;DHT22;3896;48.758;8.888;2023-05-07T07:32:52;15.80;99.90
7708;DHT22;3896;48.758;8.888;2023-05-07T07:35:18;15.90;99.90
7708;DHT22;3896;48.758;8.888;2023-05-07T07:37:43;16.10;99.90
7708;DHT22;3896;48.758;8.888;2023-05-07T07:40:09;16.30;99.90
7708;DHT22;3896;48.758;8.888;2023-05-07T07:42:35;16.40;99.90
7708;DHT22;3896;48.758;8.888;2023-05-07T07:45:01;16.50;99.90
7708;DHT22;3896;48.758;8.888;2023-05-07T07:47:26;16.60;99.90
7708;DHT22;3896;48.758;8.888;2023-05-07T07:49:52;16.80;99.90
7708;DHT22;3896;48.758;8.888;2023-05-07T07:52:18;16.90;99.90
7708;DHT22;3896;48.758;8.888;2023-05-07T07:54:44;17.00;99.90
7708;DHT22;3896;48.758;8.888;2023-05-07T07:57:10;17.10;99.90
7708;DHT22;3896;48.758;8.888;2023-05-07T07:59:35;17.30;99.90
7708;DHT22;3896;48.758;8.888;2023-05-07T08:02:01;17.40;99.90
7708;DHT22;3896;48.758;8.888;2023-05-07T08:04:26;17.60;99.90
7708;DHT22;3896;48.758;8.888;2023-05-07T08:06:52;17.70;99.90
7708;DHT22;3896;48.758;8.888;2023-05-07T08:09:19;17.80;99.90
7708;DHT22;3896;48.758;8.888;2023-05-07T08:11:45;18.00;99.90
7708;DHT22;3896;48.758;8.888;2023-05-07T08:14:11;18.10;99.90
7708;DHT22;3896;48.758;8.888;2023-05-07T08:16:37;18.30;99.90
7708;DHT22;3896;48.758;8.888;2023-05-07T08:19:02;18.40;99.90
7708;DHT22;3896;48.758;8.888;2023-05-07T08:21:28;18.50;99.90
7708;DHT22;3896;48.758;8.888;2023-05-07T08:23:54;18.70;99.90
7708;DHT22;3896;48.758;8.888;2023-05-07T08:26:19;18.80;99.60
7708;DHT22;3896;48.758;8.888;2023-05-07T08:28:45;18.90;99.40
7708;DHT22;3896;48.758;8.888;2023-05-07T08:31:11;19.00;98.30
7708;DHT22;3896;48.758;8.888;2023-05-07T08:33:39;19.20;97.50
7708;DHT22;3896;48.758;8.888;2023-05-07T08:36:05;19.30;96.50
7708;DHT22;3896;48.758;8.888;2023-05-07T08:38:31;19.40;95.80
7708;DHT22;3896;48.758;8.888;2023-05-07T08:40:56;19.60;94.90
7708;DHT22;3896;48.758;8.888;2023-05-07T08:43:25;19.70;94.30
7708;DHT22;3896;48.758;8.888;2023-05-07T08:45:53;19.90;94.40
7708;DHT22;3896;48.758;8.888;2023-05-07T08:48:22;20.00;93.90
7708;DHT22;3896;48.758;8.888;2023-05-07T08:50:50;20.20;93.20
7708;DHT22;3896;48.758;8.888;2023-05-07T08:53:17;20.40;92.70
7708;DHT22;3896;48.758;8.888;2023-05-07T08:55:43;20.50;92.40
7708;DHT22;3896;48.758;8.888;2023-05-07T08:58:08;20.70;91.40
7708;DHT22;3896;48.758;8.888;2023-05-07T09:00:35;20.80;90.50
7708;DHT22;3896;48.758;8.888;2023-05-07T09:03:01;21.00;90.10
7708;DHT22;3896;48.758;8.888;2023-05-07T09:05:27;21.20;90.00
7708;DHT22;3896;48.758;8.888;2023-05-07T09:07:52;21.30;88.50
7708;DHT22;3896;48.758;8.888;2023-05-07T09:10:18;21.50;88.30
7708;DHT22;3896;48.758;8.888;2023-05-07T09:12:46;21.70;87.80
7708;DHT22;3896;48.758;8.888;2023-05-07T09:15:12;21.90;86.40
7708;DHT22;3896;48.758;8.888;2023-05-07T09:17:41;22.00;85.00
7708;DHT22;3896;48.758;8.888;2023-05-07T09:20:08;22.20;83.80
7708;DHT22;3896;48.758;8.888;2023-05-07T09:22:39;22.40;82.40
7708;DHT22;3896;48.758;8.888;2023-05-07T09:25:08;22.50;80.60
7708;DHT22;3896;48.758;8.888;2023-05-07T09:27:34;22.70;79.00
7708;DHT22;3896;48.758;8.888;2023-05-07T09:30:03;22.80;77.50
7708;DHT22;3896;48.758;8.888;2023-05-07T09:32:29;23.00;76.90
7708;DHT22;3896;48.758;8.888;2023-05-07T09:34:56;23.20;75.50
7708;DHT22;3896;48.758;8.888;2023-05-07T09:37:22;23.30;75.30
7708;DHT22;3896;48.758;8.888;2023-05-07T09:39:49;23.40;73.70
7708;DHT22;3896;48.758;8.888;2023-05-07T09:42:15;23.60;72.90
7708;DHT22;3896;48.758;8.888;2023-05-07T09:44:41;23.70;72.00
7708;DHT22;3896;48.758;8.888;2023-05-07T09:47:08;23.80;71.20
7708;DHT22;3896;48.758;8.888;2023-05-07T09:49:38;23.90;70.20
7708;DHT22;3896;48.758;8.888;2023-05-07T09:52:06;23.90;70.70
7708;DHT22;3896;48.758;8.888;2023-05-07T09:54:35;24.00;70.50
7708;DHT22;3896;48.758;8.888;2023-05-07T09:57:03;24.10;70.20
7708;DHT22;3896;48.758;8.888;2023-05-07T09:59:31;24.20;70.50
7708;DHT22;3896;48.758;8.888;2023-05-07T10:01:58;24.30;69.80
7708;DHT22;3896;48.758;8.888;2023-05-07T10:04:27;24.40;68.50
7708;DHT22;3896;48.758;8.888;2023-05-07T10:06:53;24.50;68.20
7708;DHT22;3896;48.758;8.888;2023-05-07T10:09:20;24.60;67.70
7708;DHT22;3896;48.758;8.888;2023-05-07T10:11:48;24.80;67.30
7708;DHT22;3896;48.758;8.888;2023-05-07T10:14:14;24.90;66.70
7708;DHT22;3896;48.758;8.888;2023-05-07T10:16:41;25.00;65.90
7708;DHT22;3896;48.758;8.888;2023-05-07T10:19:08;25.10;65.10
7708;DHT22;3896;48.758;8.888;2023-05-07T10:21:39;25.10;64.30
7708;DHT22;3896;48.758;8.888;2023-05-07T10:24:08;25.20;64.10
7708;DHT22;3896;48.758;8.888;2023-05-07T10:26:41;25.30;63.50
7708;DHT22;3896;48.758;8.888;2023-05-07T10:29:33;25.50;63.20
7708;DHT22;3896;48.758;8.888;2023-05-07T10:34:41;25.80;64.10
7708;DHT22;3896;48.758;8.888;2023-05-07T10:37:09;25.90;62.10
7708;DHT22;3896;48.758;8.888;2023-05-07T10:39:35;26.10;60.90
7708;DHT22;3896;48.758;8.888;2023-05-07T10:42:11;26.20;59.90
7708;DHT22;3896;48.758;8.888;2023-05-07T10:44:37;26.30;59.00
7708;DHT22;3896;48.758;8.888;2023-05-07T10:47:07;26.40;57.80
7708;DHT22;3896;48.758;8.888;2023-05-07T10:49:35;26.60;57.20
7708;DHT22;3896;48.758;8.888;2023-05-07T10:52:21;26.70;56.90
7708;DHT22;3896;48.758;8.888;2023-05-07T10:57:40;26.70;55.40
7708;DHT22;3896;48.758;8.888;2023-05-07T11:05:28;26.70;54.30
7708;DHT22;3896;48.758;8.888;2023-05-07T11:07:57;26.70;54.10
7708;DHT22;3896;48.758;8.888;2023-05-07T11:10:22;26.70;54.00
7708;DHT22;3896;48.758;8.888;2023-05-07T11:12:50;26.60;54.20
7708;DHT22;3896;48.758;8.888;2023-05-07T11:15:35;26.60;54.70
7708;DHT22;3896;48.758;8.888;2023-05-07T11:18:02;26.50;55.50
7708;DHT22;3896;48.758;8.888;2023-05-07T11:20:49;26.50;56.20
7708;DHT22;3896;48.758;8.888;2023-05-07T11:26:10;26.40;57.50
7708;DHT22;3896;48.758;8.888;2023-05-07T11:28:42;26.30;57.40
7708;DHT22;3896;48.758;8.888;2023-05-07T11:31:08;26.30;57.40
7708;DHT22;3896;48.758;8.888;2023-05-07T11:33:35;26.20;57.60
7708;DHT22;3896;48.758;8.888;2023-05-07T11:36:05;26.10;57.90
7708;DHT22;3896;48.758;8.888;2023-05-07T11:38:34;26.00;58.20
7708;DHT22;3896;48.758;8.888;2023-05-07T11:41:00;25.90;58.60
7708;DHT22;3896;48.758;8.888;2023-05-07T11:43:27;25.80;59.40
7708;DHT22;3896;48.758;8.888;2023-05-07T11:45:53;25.80;60.10
7708;DHT22;3896;48.758;8.888;2023-05-07T11:48:21;25.70;61.00
7708;DHT22;3896;48.758;8.888;2023-05-07T11:50:54;25.50;61.50
7708;DHT22;3896;48.758;8.888;2023-05-07T11:53:24;25.40;62.60
7708;DHT22;3896;48.758;8.888;2023-05-07T11:55:53;25.20;64.50
7708;DHT22;3896;48.758;8.888;2023-05-07T11:58:23;25.10;65.40
7708;DHT22;3896;48.758;8.888;2023-05-07T12:00:50;25.00;66.70
7708;DHT22;3896;48.758;8.888;2023-05-07T12:03:15;24.90;69.50
7708;DHT22;3896;48.758;8.888;2023-05-07T12:05:41;24.80;72.20
7708;DHT22;3896;48.758;8.888;2023-05-07T12:08:07;24.70;73.90
7708;DHT22;3896;48.758;8.888;2023-05-07T12:10:33;24.60;74.70
7708;DHT22;3896;48.758;8.888;2023-05-07T12:12:59;24.50;75.70
7708;DHT22;3896;48.758;8.888;2023-05-07T12:15:24;24.40;75.80
7708;DHT22;3896;48.758;8.888;2023-05-07T12:17:50;24.30;77.10
7708;DHT22;3896;48.758;8.888;2023-05-07T12:20:18;24.20;77.80
7708;DHT22;3896;48.758;8.888;2023-05-07T12:22:44;24.10;78.00
7708;DHT22;3896;48.758;8.888;2023-05-07T12:25:09;24.10;78.60
7708;DHT22;3896;48.758;8.888;2023-05-07T12:27:37;24.00;79.00
7708;DHT22;3896;48.758;8.888;2023-05-07T12:30:04;23.90;79.80
7708;DHT22;3896;48.758;8.888;2023-05-07T12:32:31;23.80;79.30
7708;DHT22;3896;48.758;8.888;2023-05-07T12:35:01;23.70;79.10
7708;DHT22;3896;48.758;8.888;2023-05-07T12:37:27;23.60;76.50
7708;DHT22;3896;48.758;8.888;2023-05-07T12:40:09;23.50;76.70
7708;DHT22;3896;48.758;8.888;2023-05-07T12:42:40;23.30;77.40
7708;DHT22;3896;48.758;8.888;2023-05-07T12:45:12;23.20;79.00
7708;DHT22;3896;48.758;8.888;2023-05-07T12:47:38;23.10;80.60
7708;DHT22;3896;48.758;8.888;2023-05-07T12:50:07;23.00;79.40
7708;DHT22;3896;48.758;8.888;2023-05-07T12:52:33;23.00;79.50
7708;DHT22;3896;48.758;8.888;2023-05-07T12:55:05;22.90;79.90
7708;DHT22;3896;48.758;8.888;2023-05-07T12:57:41;22.80;80.40
7708;DHT22;3896;48.758;8.888;2023-05-07T13:00:07;22.80;80.40
7708;DHT22;3896;48.758;8.888;2023-05-07T13:02:37;22.70;80.10
7708;DHT22;3896;48.758;8.888;2023-05-07T13:05:03;22.70;79.60
7708;DHT22;3896;48.758;8.888;2023-05-07T13:07:29;22.60;79.20
7708;DHT22;3896;48.758;8.888;2023-05-07T13:09:54;22.60;79.60
7708;DHT22;3896;48.758;8.888;2023-05-07T13:12:20;22.50;80.10
7708;DHT22;3896;48.758;8.888;2023-05-07T13:14:46;22.40;80.40
7708;DHT22;3896;48.758;8.888;2023-05-07T13:17:11;22.30;80.60
7708;DHT22;3896;48.758;8.888;2023-05-07T13:19:37;22.20;80.50
7708;DHT22;3896;48.758;8.888;2023-05-07T13:22:03;22.10;79.80
7708;DHT22;3896;48.758;8.888;2023-05-07T13:24:29;22.10;80.10
7708;DHT22;3896;48.758;8.888;2023-05-07T13:26:54;22.00;80.80
7708;DHT22;3896;48.758;8.888;2023-05-07T13:29:20;21.90;80.60
7708;DHT22;3896;48.758;8.888;2023-05-07T13:31:50;21.90;79.90
7708;DHT22;3896;48.758;8.888;2023-05-07T13:34:16;21.80;80.10
7708;DHT22;3896;48.758;8.888;2023-05-07T13:36:41;21.80;80.00
7708;DHT22;3896;48.758;8.888;2023-05-07T13:39:07;21.70;79.80
7708;DHT22;3896;48.758;8.888;2023-05-07T13:41:32;21.70;79.90
7708;DHT22;3896;48.758;8.888;2023-05-07T13:43:58;21.60;79.40
7708;DHT22;3896;48.758;8.888;2023-05-07T13:46:23;21.60;79.10
7708;DHT22;3896;48.758;8.888;2023-05-07T13:48:49;21.50;79.70
7708;DHT22;3896;48.758;8.888;2023-05-07T13:51:16;21.50;79.70
7708;DHT22;3896;48.758;8.888;2023-05-07T13:53:42;21.40;79.40
7708;DHT22;3896;48.758;8.888;2023-05-07T13:56:07;21.30;80.10
7708;DHT22;3896;48.758;8.888;2023-05-07T13:58:33;21.20;79.70
7708;DHT22;3896;48.758;8.888;2023-05-07T14:00:58;21.10;79.70
7708;DHT22;3896;48.758;8.888;2023-05-07T14:03:24;21.00;80.20
7708;DHT22;3896;48.758;8.888;2023-05-07T14:05:50;21.00;80.80
7708;DHT22;3896;48.758;8.888;2023-05-07T14:08:15;20.90;81.90
7708;DHT22;3896;48.758;8.888;2023-05-07T14:10:42;20.80;82.50
7708;DHT22;3896;48.758;8.888;2023-05-07T14:13:08;20.80;84.00
7708;DHT22;3896;48.758;8.888;2023-05-07T14:15:33;20.70;84.20
7708;DHT22;3896;48.758;8.888;2023-05-07T14:18:00;20.60;84.50
7708;DHT22;3896;48.758;8.888;2023-05-07T14:20:25;20.50;85.20
7708;DHT22;3896;48.758;8.888;2023-05-07T14:22:51;20.40;86.40
7708;DHT22;3896;48.758;8.888;2023-05-07T14:25:17;20.30;87.20
7708;DHT22;3896;48.758;8.888;2023-05-07T14:27:42;20.30;88.10
7708;DHT22;3896;48.758;8.888;2023-05-07T14:30:08;20.20;88.30
7708;DHT22;3896;48.758;8.888;2023-05-07T14:32:34;20.10;89.20
7708;DHT22;3896;48.758;8.888;2023-05-07T14:35:00;20.10;90.10
7708;DHT22;3896;48.758;8.888;2023-05-07T14:37:25;20.10;90.00
7708;DHT22;3896;48.758;8.888;2023-05-07T14:39:51;20.00;90.80
7708;DHT22;3896;48.758;8.888;2023-05-07T14:42:17;20.00;91.20
7708;DHT22;3896;48.758;8.888;2023-05-07T14:44:44;19.90;91.70
7708;DHT22;3896;48.758;8.888;2023-05-07T14:47:10;19.90;92.40
7708;DHT22;3896;48.758;8.888;2023-05-07T14:49:36;19.80;93.00
7708;DHT22;3896;48.758;8.888;2023-05-07T14:52:01;19.80;93.90
7708;DHT22;3896;48.758;8.888;2023-05-07T14:54:27;19.80;94.60
7708;DHT22;3896;48.758;8.888;2023-05-07T14:56:53;19.80;95.00
7708;DHT22;3896;48.758;8.888;2023-05-07T14:59:19;19.70;94.90
7708;DHT22;3896;48.758;8.888;2023-05-07T15:01:47;19.70;96.00
7708;DHT22;3896;48.758;8.888;2023-05-07T15:04:12;19.70;96.30
7708;DHT22;3896;48.758;8.888;2023-05-07T15:06:38;19.70;97.10
7708;DHT22;3896;48.758;8.888;2023-05-07T15:09:04;19.70;97.50
7708;DHT22;3896;48.758;8.888;2023-05-07T15:11:30;19.60;98.10
7708;DHT22;3896;48.758;8.888;2023-05-07T15:13:56;19.60;98.70
7708;DHT22;3896;48.758;8.888;2023-05-07T15:16:21;19.60;99.40
7708;DHT22;3896;48.758;8.888;2023-05-07T15:18:48;19.60;99.90
7708;DHT22;3896;48.758;8.888;2023-05-07T15:21:13;19.60;99.90
7708;DHT22;3896;48.758;8.888;2023-05-07T15:23:39;19.60;99.90
7708;DHT22;3896;48.758;8.888;2023-05-07T15:26:06;19.60;99.90
7708;DHT22;3896;48.758;8.888;2023-05-07T15:28:33;19.60;99.90
7708;DHT22;3896;48.758;8.888;2023-05-07T15:30:59;19.60;99.90
7708;DHT22;3896;48.758;8.888;2023-05-07T15:33:25;19.60;99.90
7708;DHT22;3896;48.758;8.888;2023-05-07T15:35:50;19.60;99.90
7708;DHT22;3896;48.758;8.888;2023-05-07T15:38:16;19.60;99.90
7708;DHT22;3896;48.758;8.888;2023-05-07T15:40:42;19.70;99.90
7708;DHT22;3896;48.758;8.888;2023-05-07T15:43:09;19.70;99.90
7708;DHT22;3896;48.758;8.888;2023-05-07T15:45:42;19.70;99.90
7708;DHT22;3896;48.758;8.888;2023-05-07T15:48:08;19.60;99.90
7708;DHT22;3896;48.758;8.888;2023-05-07T15:50:34;19.70;99.90
7708;DHT22;3896;48.758;8.888;2023-05-07T15:53:01;19.70;99.90
7708;DHT22;3896;48.758;8.888;2023-05-07T15:55:26;19.70;99.90
7708;DHT22;3896;48.758;8.888;2023-05-07T15:57:52;19.70;99.90
7708;DHT22;3896;48.758;8.888;2023-05-07T16:00:19;19.80;99.90
7708;DHT22;3896;48.758;8.888;2023-05-07T16:02:45;19.80;99.90
7708;DHT22;3896;48.758;8.888;2023-05-07T16:05:11;19.80;99.90
7708;DHT22;3896;48.758;8.888;2023-05-07T16:07:38;19.80;99.90
7708;DHT22;3896;48.758;8.888;2023-05-07T16:10:04;19.90;99.90